Time,TemperatureF,DewpointF,PressureIn,WindDirection,WindDirectionDegrees,WindSpeedMPH,WindSpeedGustMPH,Humidity,HourlyPrecipIn,Conditions,Clouds,dailyrainin,SoftwareType,DateUTC
2013-11-17 00:04:00,58.9,48.0,29.83,SW,215,1.0,6.0,68,0.00,,,0.00,weatherlink.com 1.10,2013-11-17 07:04:00,
2013-11-17 00:19:00,58.5,48.0,29.83,WSW,246,1.0,7.0,69,0.00,,,0.00,weatherlink.com 1.10,2013-11-17 07:19:00,
2013-11-17 00:34:00,58.3,49.0,29.84,WNW,293,1.0,5.0,70,0.00,,,0.00,weatherlink.com 1.10,2013-11-17 07:34:00,
2013-11-17 00:49:00,57.8,48.0,29.84,WSW,246,3.0,3.0,71,0.00,,,0.00,weatherlink.com 1.10,2013-11-17 07:49:00,
2013-11-17 01:04:00,57.7,49.0,29.84,SW,224,0.0,4.0,72,0.00,,,0.00,weatherlink.com 1.10,2013-11-17 08:04:00,
2013-11-17 01:19:00,57.3,48.0,29.85,WSW,248,0.0,2.0,72,0.00,,,0.00,weatherlink.com 1.10,2013-11-17 08:19:00,
2013-11-17 01:34:00,57.1,48.0,29.85,WSW,242,0.0,3.0,72,0.00,,,0.00,weatherlink.com 1.10,2013-11-17 08:34:00,
2013-11-17 01:49:00,56.6,46.0,29.85,WNW,289,0.0,2.0,69,0.00,,,0.00,weatherlink.com 1.10,2013-11-17 08:49:00,
2013-11-17 02:04:00,55.7,47.0,29.86,West,281,0.0,1.0,73,0.00,,,0.00,weatherlink.com 1.10,2013-11-17 09:04:00,
2013-11-17 02:19:00,55.4,46.0,29.86,South,174,0.0,1.0,72,0.00,,,0.00,weatherlink.com 1.10,2013-11-17 09:19:00,
2013-11-17 02:34:00,54.7,47.0,29.86,SW,235,0.0,2.0,75,0.00,,,0.00,weatherlink.com 1.10,2013-11-17 09:34:00,
2013-11-17 02:49:00,54.5,47.0,29.86,SW,231,0.0,1.0,75,0.00,,,0.00,weatherlink.com 1.10,2013-11-17 09:49:00,
2013-11-17 03:04:00,53.5,46.0,29.87,SW,224,0.0,2.0,77,0.00,,,0.00,weatherlink.com 1.10,2013-11-17 10:04:00,
2013-11-17 03:19:00,53.5,46.0,29.87,SSE,166,0.0,1.0,76,0.00,,,0.00,weatherlink.com 1.10,2013-11-17 10:19:00,
2013-11-17 03:34:00,53.6,46.0,29.87,SE,141,0.0,1.0,76,0.00,,,0.00,weatherlink.com 1.10,2013-11-17 10:34:00,
2013-11-17 03:49:00,53.8,47.0,29.87,WSW,241,0.0,1.0,77,0.00,,,0.00,weatherlink.com 1.10,2013-11-17 10:49:00,
2013-11-17 04:04:00,54.9,48.0,29.87,SW,219,0.0,3.0,78,0.00,,,0.00,weatherlink.com 1.10,2013-11-17 11:04:00,
2013-11-17 04:19:00,55.6,48.0,29.88,West,266,0.0,3.0,76,0.00,,,0.00,weatherlink.com 1.10,2013-11-17 11:19:00,
2013-11-17 04:34:00,55.7,49.0,29.88,West,279,0.0,2.0,77,0.00,,,0.00,weatherlink.com 1.10,2013-11-17 11:34:00,
2013-11-17 04:49:00,56.1,49.0,29.88,West,271,0.0,2.0,76,0.00,,,0.00,weatherlink.com 1.10,2013-11-17 11:49:00,
2013-11-17 05:04:00,55.6,48.0,29.89,ENE,72,0.0,1.0,75,0.00,,,0.00,weatherlink.com 1.10,2013-11-17 12:04:00,
2013-11-17 05:19:00,54.6,48.0,29.89,NW,311,0.0,1.0,78,0.00,,,0.00,weatherlink.com 1.10,2013-11-17 12:19:00,
2013-11-17 05:34:00,54.5,48.0,29.90,NW,311,0.0,0.0,80,0.00,,,0.00,weatherlink.com 1.10,2013-11-17 12:34:00,
2013-11-17 05:49:00,54.9,49.0,29.90,WNW,288,0.0,0.0,79,0.00,,,0.00,weatherlink.com 1.10,2013-11-17 12:49:00,
2013-11-17 06:04:00,54.8,48.0,29.91,West,262,1.0,1.0,79,0.00,,,0.00,weatherlink.com 1.10,2013-11-17 13:04:00,
2013-11-17 06:19:00,55.0,49.0,29.91,SW,229,0.0,1.0,79,0.00,,,0.00,weatherlink.com 1.10,2013-11-17 13:19:00,
2013-11-17 06:35:00,54.5,47.0,29.92,ESE,109,0.0,1.0,77,0.00,,,0.00,weatherlink.com 1.10,2013-11-17 13:35:00,
2013-11-17 06:50:00,53.5,48.0,29.93,ESE,110,0.0,1.0,81,0.00,,,0.00,weatherlink.com 1.10,2013-11-17 13:50:00,
2013-11-17 07:05:00,54.0,48.0,29.93,West,271,0.0,1.0,81,0.00,,,0.00,weatherlink.com 1.10,2013-11-17 14:05:00,
2013-11-17 07:20:00,53.9,48.0,29.94,West,264,0.0,1.0,81,0.00,,,0.00,weatherlink.com 1.10,2013-11-17 14:20:00,
2013-11-17 07:35:00,54.9,48.0,29.95,SSW,210,0.0,3.0,78,0.00,,,0.00,weatherlink.com 1.10,2013-11-17 14:35:00,
2013-11-17 07:50:00,57.6,50.0,29.95,SSW,205,0.0,1.0,75,0.00,,,0.00,weatherlink.com 1.10,2013-11-17 14:50:00,
2013-11-17 08:05:00,59.5,49.0,29.96,East,94,0.0,1.0,69,0.00,,,0.00,weatherlink.com 1.10,2013-11-17 15:05:00,
2013-11-17 08:20:00,59.5,48.0,29.96,East,95,0.0,2.0,67,0.00,,,0.00,weatherlink.com 1.10,2013-11-17 15:20:00,
2013-11-17 08:35:00,60.0,49.0,29.96,SE,134,3.0,4.0,66,0.00,,,0.00,weatherlink.com 1.10,2013-11-17 15:35:00,
2013-11-17 08:50:00,60.0,49.0,29.97,ESE,114,2.0,4.0,67,0.00,,,0.00,weatherlink.com 1.10,2013-11-17 15:50:00,
2013-11-17 09:05:00,60.9,49.0,29.97,South,172,3.0,4.0,65,0.00,,,0.00,weatherlink.com 1.10,2013-11-17 16:05:00,
2013-11-17 09:20:00,61.7,49.0,29.98,SE,126,3.0,5.0,63,0.00,,,0.00,weatherlink.com 1.10,2013-11-17 16:20:00,
2013-11-17 09:35:00,62.8,49.0,29.98,SE,127,4.0,5.0,60,0.00,,,0.00,weatherlink.com 1.10,2013-11-17 16:35:00,
2013-11-17 09:50:00,63.8,48.0,29.99,ESE,103,4.0,6.0,57,0.00,,,0.00,weatherlink.com 1.10,2013-11-17 16:50:00,
2013-11-17 10:05:00,64.4,47.0,29.99,SE,127,6.0,8.0,54,0.00,,,0.00,weatherlink.com 1.10,2013-11-17 17:05:00,
2013-11-17 10:20:00,64.9,46.0,29.99,SE,134,3.0,8.0,51,0.00,,,0.00,weatherlink.com 1.10,2013-11-17 17:20:00,
2013-11-17 10:35:00,66.9,46.0,29.99,East,87,9.0,10.0,47,0.00,,,0.00,weatherlink.com 1.10,2013-11-17 17:35:00,
2013-11-17 10:50:00,66.9,46.0,29.98,ENE,77,7.0,13.0,47,0.00,,,0.00,weatherlink.com 1.10,2013-11-17 17:50:00,
2013-11-17 11:05:00,68.2,46.0,29.98,ESE,118,3.0,10.0,45,0.00,,,0.00,weatherlink.com 1.10,2013-11-17 18:05:00,
2013-11-17 11:20:00,68.0,45.0,29.98,SE,129,10.0,15.0,44,0.00,,,0.00,weatherlink.com 1.10,2013-11-17 18:20:00,
2013-11-17 11:35:00,68.3,45.0,29.97,South,186,7.0,11.0,44,0.00,,,0.00,weatherlink.com 1.10,2013-11-17 18:35:00,
2013-11-17 11:50:00,69.3,46.0,29.97,South,176,3.0,11.0,43,0.00,,,0.00,weatherlink.com 1.10,2013-11-17 18:50:00,
2013-11-17 12:05:00,69.0,45.0,29.96,SSE,150,1.0,8.0,43,0.00,,,0.00,weatherlink.com 1.10,2013-11-17 19:05:00,
2013-11-17 12:20:00,70.2,45.0,29.95,South,169,5.0,9.0,41,0.00,,,0.00,weatherlink.com 1.10,2013-11-17 19:20:00,
2013-11-17 12:35:00,72.2,45.0,29.94,West,263,2.0,8.0,38,0.00,,,0.00,weatherlink.com 1.10,2013-11-17 19:35:00,
2013-11-17 12:50:00,72.0,45.0,29.93,ESE,110,1.0,9.0,38,0.00,,,0.00,weatherlink.com 1.10,2013-11-17 19:50:00,
2013-11-17 13:05:00,71.4,44.0,29.93,ESE,108,1.0,9.0,38,0.00,,,0.00,weatherlink.com 1.10,2013-11-17 20:05:00,
2013-11-17 13:20:00,72.9,45.0,29.92,SE,135,4.0,8.0,37,0.00,,,0.00,weatherlink.com 1.10,2013-11-17 20:20:00,
2013-11-17 13:35:00,73.4,45.0,29.91,NNE,29,0.0,7.0,37,0.00,,,0.00,weatherlink.com 1.10,2013-11-17 20:35:00,
2013-11-17 13:51:00,73.3,45.0,29.91,NW,304,2.0,6.0,36,0.00,,,0.00,weatherlink.com 1.10,2013-11-17 20:51:00,
2013-11-17 14:06:00,74.0,45.0,29.91,SSE,165,3.0,6.0,36,0.00,,,0.00,weatherlink.com 1.10,2013-11-17 21:06:00,
2013-11-17 14:21:00,74.9,45.0,29.90,ESE,106,0.0,5.0,34,0.00,,,0.00,weatherlink.com 1.10,2013-11-17 21:21:00,
2013-11-17 14:36:00,75.0,45.0,29.90,NNW,345,0.0,6.0,34,0.00,,,0.00,weatherlink.com 1.10,2013-11-17 21:36:00,
2013-11-17 14:51:00,73.8,44.0,29.90,SSE,156,1.0,6.0,34,0.00,,,0.00,weatherlink.com 1.10,2013-11-17 21:51:00,
2013-11-17 15:06:00,74.3,43.0,29.90,SE,143,3.0,6.0,33,0.00,,,0.00,weatherlink.com 1.10,2013-11-17 22:06:00,
2013-11-17 15:21:00,75.8,44.0,29.89,WSW,256,3.0,8.0,32,0.00,,,0.00,weatherlink.com 1.10,2013-11-17 22:21:00,
2013-11-17 15:36:00,75.7,44.0,29.90,WSW,250,7.0,10.0,32,0.00,,,0.00,weatherlink.com 1.10,2013-11-17 22:36:00,
2013-11-17 15:51:00,74.9,43.0,29.89,WNW,295,1.0,10.0,32,0.00,,,0.00,weatherlink.com 1.10,2013-11-17 22:51:00,
2013-11-17 16:06:00,75.0,43.0,29.90,NW,312,6.0,10.0,32,0.00,,,0.00,weatherlink.com 1.10,2013-11-17 23:06:00,
2013-11-17 16:21:00,74.4,43.0,29.90,WSW,243,3.0,6.0,33,0.00,,,0.00,weatherlink.com 1.10,2013-11-17 23:21:00,
2013-11-17 16:36:00,74.2,44.0,29.90,WSW,243,2.0,4.0,34,0.00,,,0.00,weatherlink.com 1.10,2013-11-17 23:36:00,
2013-11-17 16:51:00,73.4,44.0,29.89,NW,311,0.0,3.0,35,0.00,,,0.00,weatherlink.com 1.10,2013-11-17 23:51:00,
2013-11-17 17:06:00,72.2,44.0,29.90,West,281,0.0,1.0,36,0.00,,,0.00,weatherlink.com 1.10,2013-11-18 00:06:00,
2013-11-17 17:21:00,69.9,46.0,29.90,WNW,288,3.0,7.0,42,0.00,,,0.00,weatherlink.com 1.10,2013-11-18 00:21:00,
2013-11-17 17:36:00,68.8,46.0,29.91,West,267,1.0,5.0,44,0.00,,,0.00,weatherlink.com 1.10,2013-11-18 00:36:00,
2013-11-17 17:51:00,67.9,46.0,29.92,WNW,289,3.0,6.0,45,0.00,,,0.00,weatherlink.com 1.10,2013-11-18 00:51:00,
2013-11-17 18:06:00,67.3,46.0,29.92,NW,322,4.0,7.0,46,0.00,,,0.00,weatherlink.com 1.10,2013-11-18 01:06:00,
2013-11-17 18:21:00,67.2,46.0,29.93,WSW,251,1.0,9.0,46,0.00,,,0.00,weatherlink.com 1.10,2013-11-18 01:21:00,
2013-11-17 18:36:00,67.1,45.0,29.93,WNW,293,2.0,7.0,46,0.00,,,0.00,weatherlink.com 1.10,2013-11-18 01:36:00,
2013-11-17 18:51:00,66.6,46.0,29.93,WNW,295,1.0,6.0,47,0.00,,,0.00,weatherlink.com 1.10,2013-11-18 01:51:00,
2013-11-17 19:06:00,66.3,46.0,29.94,NW,323,3.0,6.0,48,0.00,,,0.00,weatherlink.com 1.10,2013-11-18 02:06:00,
2013-11-17 19:21:00,66.2,45.0,29.94,West,275,1.0,6.0,47,0.00,,,0.00,weatherlink.com 1.10,2013-11-18 02:21:00,
2013-11-17 19:36:00,65.8,45.0,29.94,WSW,248,3.0,5.0,48,0.00,,,0.00,weatherlink.com 1.10,2013-11-18 02:36:00,
2013-11-17 19:51:00,65.8,45.0,29.94,WSW,245,2.0,5.0,48,0.00,,,0.00,weatherlink.com 1.10,2013-11-18 02:51:00,
2013-11-17 20:06:00,65.6,45.0,29.94,WNW,289,1.0,2.0,48,0.00,,,0.00,weatherlink.com 1.10,2013-11-18 03:06:00,
2013-11-17 20:21:00,64.8,45.0,29.94,West,271,0.0,2.0,49,0.00,,,0.00,weatherlink.com 1.10,2013-11-18 03:21:00,
2013-11-17 20:36:00,64.9,45.0,29.95,NW,307,0.0,2.0,49,0.00,,,0.00,weatherlink.com 1.10,2013-11-18 03:36:00,
2013-11-17 20:51:00,64.7,44.0,29.95,WNW,285,0.0,1.0,48,0.00,,,0.00,weatherlink.com 1.10,2013-11-18 03:51:00,
2013-11-17 21:06:00,64.0,45.0,29.96,WNW,285,0.0,0.0,50,0.00,,,0.00,weatherlink.com 1.10,2013-11-18 04:06:00,
2013-11-17 21:21:00,64.3,45.0,29.96,WNW,285,0.0,0.0,49,0.00,,,0.00,weatherlink.com 1.10,2013-11-18 04:21:00,
2013-11-17 21:36:00,64.2,44.0,29.96,WNW,285,0.0,0.0,49,0.00,,,0.00,weatherlink.com 1.10,2013-11-18 04:36:00,
2013-11-17 21:51:00,64.1,44.0,29.97,WSW,242,0.0,1.0,49,0.00,,,0.00,weatherlink.com 1.10,2013-11-18 04:51:00,
2013-11-17 22:06:00,64.3,45.0,29.97,WSW,255,0.0,3.0,49,0.00,,,0.00,weatherlink.com 1.10,2013-11-18 05:06:00,
2013-11-17 22:21:00,64.1,44.0,29.97,WSW,255,0.0,1.0,49,0.00,,,0.00,weatherlink.com 1.10,2013-11-18 05:21:00,
2013-11-17 22:36:00,63.8,44.0,29.98,WSW,255,0.0,0.0,48,0.00,,,0.00,weatherlink.com 1.10,2013-11-18 05:36:00,
2013-11-17 22:51:00,63.9,43.0,29.98,WSW,255,0.0,0.0,47,0.00,,,0.00,weatherlink.com 1.10,2013-11-18 05:51:00,
2013-11-17 23:06:00,63.0,43.0,29.98,WSW,255,0.0,0.0,49,0.00,,,0.00,weatherlink.com 1.10,2013-11-18 06:06:00,
2013-11-17 23:21:00,61.3,43.0,29.98,WSW,240,0.0,1.0,52,0.00,,,0.00,weatherlink.com 1.10,2013-11-18 06:21:00,
2013-11-17 23:36:00,61.0,43.0,29.98,WSW,248,0.0,1.0,52,0.00,,,0.00,weatherlink.com 1.10,2013-11-18 06:36:00,
2013-11-17 23:51:00,60.3,44.0,29.98,WSW,248,0.0,1.0,55,0.00,,,0.00,weatherlink.com 1.10,2013-11-18 06:51:00,